Butes — A8UR6 — position and weather

sailwx.info

Track history (hours):
 
Tides and Currents Weather Stations Pressure Air Temp Water Temp Dewpoint Dewpoint Depression Visibility Wind Speed Wind Dir Waves Ship Positions

Butes

Last reported at 2016-Feb-06 12:24 UTC. Time now 2016-Feb-07 23:50 UTC.
Position N 43°18' E 003°51'.

Length 90 m; draft 5.5 m.

Type: Cargo ship. MMSI: 636091937.

Date/timePositionNaut miles runAvg speedWind from/ knotsBaromVisibWave heightAir tempDewpointWater temp
2016-Feb-06 12:24N 43°18' E 003°51'75 6.9
2016-Feb-06 01:33N 42°05' E 003°31'9 6.6
2016-Feb-06 00:16N 41°57' E 003°26'28 7.4
2016-Feb-05 20:27N 41°34' E 003°04'7 7.6
2016-Feb-05 19:33N 41°28' E 002°59'8 7.5
2016-Feb-05 18:33N 41°22' E 002°53'8 7.8
2016-Feb-05 17:33N 41°16' E 002°47'8 7.7
2016-Feb-05 16:33N 41°09' E 002°41'8 7.5
2016-Feb-05 15:33N 41°03' E 002°36'8 7.9
2016-Feb-05 14:33N 40°57' E 002°30'8 8.0
2016-Feb-05 13:33N 40°50' E 002°24'8 8.0
2016-Feb-05 12:33N 40°43' E 002°18'8 8.1
2016-Feb-05 11:34N 40°37' E 002°12'8 8.0
2016-Feb-05 10:33N 40°30' E 002°05'8 8.2
2016-Feb-05 09:33N 40°24' E 001°59'8 8.2
2016-Feb-05 08:34N 40°17' E 001°53'8 8.4
2016-Feb-05 07:33N 40°10' E 001°47'10 9.6
2016-Feb-05 06:33N 40°02' E 001°40'9 8.6
2016-Feb-05 05:33N 39°55' E 001°33'158 7.4
2016-Feb-04 08:11N 37°45' W 000°21'5 7.3
2016-Feb-04 07:31N 37°41' W 000°24'7 7.2
2016-Feb-04 06:33N 37°35' W 000°29'6 5.9
2016-Feb-04 05:33N 37°31' W 000°34'6 6.2
2016-Feb-04 04:33N 37°27' W 000°40'7 6.9
2016-Feb-04 03:33N 37°22' W 000°47'9 7.5
2016-Feb-04 02:22N 37°17' W 000°55'7 7.8
2016-Feb-04 01:26N 37°12' W 001°02'208 8.3
2016-Feb-03 00:24N 35°57' W 005°04'8 9.6
2016-Feb-02 23:33N 35°56' W 005°14'5 4.9
2016-Feb-02 22:31N 35°54' W 005°19'0 0.0
2016-Feb-02 21:31N 35°54' W 005°19'  
2016-Jan-27 23:28N 36°37' W 008°03'1111.1
2016-Jan-27 22:28N 36°36' W 008°17'2110.7
2016-Jan-27 20:31N 36°33' W 008°42'1111.0
2016-Jan-27 19:31N 36°32' W 008°56'1110.8
2016-Jan-27 18:31N 36°33' W 009°09'10 9.9
2016-Jan-27 17:28N 36°38' W 009°21'2110.5
2016-Jan-27 15:28N 36°56' W 009°34'1110.7
2016-Jan-27 14:28N 37°06' W 009°38'2110.7
2016-Jan-27 12:31N 37°26' W 009°44'  
Track history (hours):
 
Tides and Currents Weather Stations Pressure Air Temp Water Temp Dewpoint Dewpoint Depression Visibility Wind Speed Wind Dir Waves Ship Positions

Butes

Last reported at 2016-Feb-06 12:24 UTC. Time now 2016-Feb-07 23:50 UTC.
Position N 43°18' E 003°51'.

Length 90 m; draft 5.5 m.

Type: Cargo ship. MMSI: 636091937.

Date/timePositionNaut miles runAvg speedWind from/ knotsBaromVisibWave heightAir tempDewpointWater temp
2016-Feb-06 12:24N 43°18' E 003°51'75 6.9
2016-Feb-06 01:33N 42°05' E 003°31'9 6.6
2016-Feb-06 00:16N 41°57' E 003°26'28 7.4
2016-Feb-05 20:27N 41°34' E 003°04'7 7.6
2016-Feb-05 19:33N 41°28' E 002°59'8 7.5
2016-Feb-05 18:33N 41°22' E 002°53'8 7.8
2016-Feb-05 17:33N 41°16' E 002°47'8 7.7
2016-Feb-05 16:33N 41°09' E 002°41'8 7.5
2016-Feb-05 15:33N 41°03' E 002°36'8 7.9
2016-Feb-05 14:33N 40°57' E 002°30'8 8.0
2016-Feb-05 13:33N 40°50' E 002°24'8 8.0
2016-Feb-05 12:33N 40°43' E 002°18'8 8.1
2016-Feb-05 11:34N 40°37' E 002°12'8 8.0
2016-Feb-05 10:33N 40°30' E 002°05'8 8.2
2016-Feb-05 09:33N 40°24' E 001°59'8 8.2
2016-Feb-05 08:34N 40°17' E 001°53'8 8.4
2016-Feb-05 07:33N 40°10' E 001°47'10 9.6
2016-Feb-05 06:33N 40°02' E 001°40'9 8.6
2016-Feb-05 05:33N 39°55' E 001°33'158 7.4
2016-Feb-04 08:11N 37°45' W 000°21'5 7.3
2016-Feb-04 07:31N 37°41' W 000°24'7 7.2
2016-Feb-04 06:33N 37°35' W 000°29'6 5.9
2016-Feb-04 05:33N 37°31' W 000°34'6 6.2
2016-Feb-04 04:33N 37°27' W 000°40'7 6.9
2016-Feb-04 03:33N 37°22' W 000°47'9 7.5
2016-Feb-04 02:22N 37°17' W 000°55'7 7.8
2016-Feb-04 01:26N 37°12' W 001°02'208 8.3
2016-Feb-03 00:24N 35°57' W 005°04'8 9.6
2016-Feb-02 23:33N 35°56' W 005°14'5 4.9
2016-Feb-02 22:31N 35°54' W 005°19'0 0.0
2016-Feb-02 21:31N 35°54' W 005°19'  
2016-Jan-27 23:28N 36°37' W 008°03'1111.1
2016-Jan-27 22:28N 36°36' W 008°17'2110.7
2016-Jan-27 20:31N 36°33' W 008°42'1111.0
2016-Jan-27 19:31N 36°32' W 008°56'1110.8
2016-Jan-27 18:31N 36°33' W 009°09'10 9.9
2016-Jan-27 17:28N 36°38' W 009°21'2110.5
2016-Jan-27 15:28N 36°56' W 009°34'1110.7
2016-Jan-27 14:28N 37°06' W 009°38'2110.7
2016-Jan-27 12:31N 37°26' W 009°44'  

Dump ship's entire track history